sensor_id;sensor_type;location;lat;lon;timestamp;temperature;humidity
27922;DHT22;15261;50.356;10.340;2022-08-01T00:00:39;18.90;99.90
27922;DHT22;15261;50.356;10.340;2022-08-01T00:03:05;18.90;99.90
27922;DHT22;15261;50.356;10.340;2022-08-01T00:05:31;18.90;99.90
27922;DHT22;15261;50.356;10.340;2022-08-01T00:07:57;18.90;99.90
27922;DHT22;15261;50.356;10.340;2022-08-01T00:10:22;18.90;99.90
27922;DHT22;15261;50.356;10.340;2022-08-01T00:12:48;18.80;99.90
27922;DHT22;15261;50.356;10.340;2022-08-01T00:15:15;18.80;99.90
27922;DHT22;15261;50.356;10.340;2022-08-01T00:17:41;18.80;99.90
27922;DHT22;15261;50.356;10.340;2022-08-01T00:20:09;18.80;99.90
27922;DHT22;15261;50.356;10.340;2022-08-01T00:22:35;18.70;99.90
27922;DHT22;15261;50.356;10.340;2022-08-01T00:25:02;18.60;99.90
27922;DHT22;15261;50.356;10.340;2022-08-01T00:27:28;18.60;99.90
27922;DHT22;15261;50.356;10.340;2022-08-01T00:29:53;18.50;99.90
27922;DHT22;15261;50.356;10.340;2022-08-01T00:32:19;18.40;99.90
27922;DHT22;15261;50.356;10.340;2022-08-01T00:34:45;18.40;99.90
27922;DHT22;15261;50.356;10.340;2022-08-01T00:37:11;18.40;99.90
27922;DHT22;15261;50.356;10.340;2022-08-01T00:39:36;18.40;99.90
27922;DHT22;15261;50.356;10.340;2022-08-01T00:42:12;18.30;99.90
27922;DHT22;15261;50.356;10.340;2022-08-01T00:44:38;18.30;99.90
27922;DHT22;15261;50.356;10.340;2022-08-01T00:47:04;18.20;99.90
27922;DHT22;15261;50.356;10.340;2022-08-01T00:49:30;18.20;99.90
27922;DHT22;15261;50.356;10.340;2022-08-01T00:51:56;18.20;99.90
27922;DHT22;15261;50.356;10.340;2022-08-01T00:54:24;18.10;99.90
27922;DHT22;15261;50.356;10.340;2022-08-01T00:56:50;18.10;99.90
27922;DHT22;15261;50.356;10.340;2022-08-01T00:59:17;18.10;99.90
27922;DHT22;15261;50.356;10.340;2022-08-01T01:01:44;18.10;99.90
27922;DHT22;15261;50.356;10.340;2022-08-01T01:04:09;18.10;99.90
27922;DHT22;15261;50.356;10.340;2022-08-01T01:06:47;18.00;99.90
27922;DHT22;15261;50.356;10.340;2022-08-01T01:09:26;18.00;99.90
27922;DHT22;15261;50.356;10.340;2022-08-01T01:14:44;18.00;99.90
27922;DHT22;15261;50.356;10.340;2022-08-01T01:17:14;18.00;99.90
27922;DHT22;15261;50.356;10.340;2022-08-01T01:19:46;18.00;99.90
27922;DHT22;15261;50.356;10.340;2022-08-01T01:25:46;18.00;99.90
27922;DHT22;15261;50.356;10.340;2022-08-01T01:31:17;18.00;99.90
27922;DHT22;15261;50.356;10.340;2022-08-01T01:33:45;18.00;99.90
27922;DHT22;15261;50.356;10.340;2022-08-01T01:36:11;18.00;99.90
27922;DHT22;15261;50.356;10.340;2022-08-01T01:38:41;18.00;99.90
27922;DHT22;15261;50.356;10.340;2022-08-01T01:41:09;18.00;99.90
27922;DHT22;15261;50.356;10.340;2022-08-01T01:43:37;17.90;99.90
27922;DHT22;15261;50.356;10.340;2022-08-01T01:46:05;17.90;99.90
27922;DHT22;15261;50.356;10.340;2022-08-01T01:51:54;17.80;99.90
27922;DHT22;15261;50.356;10.340;2022-08-01T01:54:23;17.70;99.90
27922;DHT22;15261;50.356;10.340;2022-08-01T01:56:50;17.60;99.90
27922;DHT22;15261;50.356;10.340;2022-08-01T01:59:24;17.60;99.90
27922;DHT22;15261;50.356;10.340;2022-08-01T02:01:53;17.50;99.90
27922;DHT22;15261;50.356;10.340;2022-08-01T02:04:20;17.50;99.90
27922;DHT22;15261;50.356;10.340;2022-08-01T02:06:50;17.50;99.90
27922;DHT22;15261;50.356;10.340;2022-08-01T02:09:21;17.40;99.90
27922;DHT22;15261;50.356;10.340;2022-08-01T02:11:51;17.40;99.90
27922;DHT22;15261;50.356;10.340;2022-08-01T02:14:19;17.40;99.90
27922;DHT22;15261;50.356;10.340;2022-08-01T02:16:48;17.40;99.90
27922;DHT22;15261;50.356;10.340;2022-08-01T02:19:17;17.40;99.90
27922;DHT22;15261;50.356;10.340;2022-08-01T02:21:56;17.40;99.90
27922;DHT22;15261;50.356;10.340;2022-08-01T02:26:57;17.30;99.90
27922;DHT22;15261;50.356;10.340;2022-08-01T02:29:36;17.30;99.90
27922;DHT22;15261;50.356;10.340;2022-08-01T02:32:04;17.20;99.90
27922;DHT22;15261;50.356;10.340;2022-08-01T02:34:33;17.20;99.90
27922;DHT22;15261;50.356;10.340;2022-08-01T02:37:03;17.20;99.90
27922;DHT22;15261;50.356;10.340;2022-08-01T02:39:30;17.20;99.90
27922;DHT22;15261;50.356;10.340;2022-08-01T02:42:00;17.20;99.90
27922;DHT22;15261;50.356;10.340;2022-08-01T02:44:31;17.20;99.90
27922;DHT22;15261;50.356;10.340;2022-08-01T02:47:00;17.20;99.90
27922;DHT22;15261;50.356;10.340;2022-08-01T02:49:34;17.20;99.90
27922;DHT22;15261;50.356;10.340;2022-08-01T02:52:13;17.10;99.90
27922;DHT22;15261;50.356;10.340;2022-08-01T02:54:40;17.10;99.90
27922;DHT22;15261;50.356;10.340;2022-08-01T02:57:08;17.10;99.90
27922;DHT22;15261;50.356;10.340;2022-08-01T02:59:36;17.00;99.90
27922;DHT22;15261;50.356;10.340;2022-08-01T03:02:04;16.90;99.90
27922;DHT22;15261;50.356;10.340;2022-08-01T03:04:33;16.90;99.90
27922;DHT22;15261;50.356;10.340;2022-08-01T03:07:00;16.90;99.90
27922;DHT22;15261;50.356;10.340;2022-08-01T03:09:29;16.80;99.90
27922;DHT22;15261;50.356;10.340;2022-08-01T03:11:59;16.80;99.90
27922;DHT22;15261;50.356;10.340;2022-08-01T03:14:26;16.80;99.90
27922;DHT22;15261;50.356;10.340;2022-08-01T03:16:53;16.80;99.90
27922;DHT22;15261;50.356;10.340;2022-08-01T03:19:23;16.80;99.90
27922;DHT22;15261;50.356;10.340;2022-08-01T03:21:50;16.70;99.90
27922;DHT22;15261;50.356;10.340;2022-08-01T03:24:16;16.60;99.90
27922;DHT22;15261;50.356;10.340;2022-08-01T03:26:44;16.60;99.90
27922;DHT22;15261;50.356;10.340;2022-08-01T03:29:15;16.60;99.90
27922;DHT22;15261;50.356;10.340;2022-08-01T03:31:44;16.60;99.90
27922;DHT22;15261;50.356;10.340;2022-08-01T03:34:10;16.50;99.90
27922;DHT22;15261;50.356;10.340;2022-08-01T03:36:55;16.50;99.90
27922;DHT22;15261;50.356;10.340;2022-08-01T03:39:26;16.50;99.90
27922;DHT22;15261;50.356;10.340;2022-08-01T03:41:57;16.40;99.90
27922;DHT22;15261;50.356;10.340;2022-08-01T03:44:26;16.40;99.90
27922;DHT22;15261;50.356;10.340;2022-08-01T03:47:00;16.30;99.90
27922;DHT22;15261;50.356;10.340;2022-08-01T03:49:31;16.40;99.90
27922;DHT22;15261;50.356;10.340;2022-08-01T03:51:59;16.30;99.90
27922;DHT22;15261;50.356;10.340;2022-08-01T03:54:30;16.30;99.90
27922;DHT22;15261;50.356;10.340;2022-08-01T03:57:02;16.30;99.90
27922;DHT22;15261;50.356;10.340;2022-08-01T03:59:29;16.30;99.90
27922;DHT22;15261;50.356;10.340;2022-08-01T04:01:55;16.40;99.90
27922;DHT22;15261;50.356;10.340;2022-08-01T04:04:21;16.40;99.90
27922;DHT22;15261;50.356;10.340;2022-08-01T04:06:47;16.50;99.90
27922;DHT22;15261;50.356;10.340;2022-08-01T04:09:16;16.50;99.90
27922;DHT22;15261;50.356;10.340;2022-08-01T04:11:42;16.60;99.90
27922;DHT22;15261;50.356;10.340;2022-08-01T04:14:07;16.60;99.90
27922;DHT22;15261;50.356;10.340;2022-08-01T04:16:33;16.70;99.90
27922;DHT22;15261;50.356;10.340;2022-08-01T04:18:59;16.70;99.90
27922;DHT22;15261;50.356;10.340;2022-08-01T04:21:26;16.80;99.90
27922;DHT22;15261;50.356;10.340;2022-08-01T04:23:58;16.90;99.90
27922;DHT22;15261;50.356;10.340;2022-08-01T04:26:25;17.00;99.90
27922;DHT22;15261;50.356;10.340;2022-08-01T04:28:52;17.00;99.90
27922;DHT22;15261;50.356;10.340;2022-08-01T04:31:21;17.00;99.90
27922;DHT22;15261;50.356;10.340;2022-08-01T04:33:49;17.10;99.90
27922;DHT22;15261;50.356;10.340;2022-08-01T04:36:18;17.20;99.90
27922;DHT22;15261;50.356;10.340;2022-08-01T04:38:46;17.30;99.90
27922;DHT22;15261;50.356;10.340;2022-08-01T04:41:14;17.40;99.90
27922;DHT22;15261;50.356;10.340;2022-08-01T04:43:41;17.40;99.90
27922;DHT22;15261;50.356;10.340;2022-08-01T04:46:07;17.40;99.90
27922;DHT22;15261;50.356;10.340;2022-08-01T04:48:37;17.50;99.90
27922;DHT22;15261;50.356;10.340;2022-08-01T04:51:03;17.70;99.90
27922;DHT22;15261;50.356;10.340;2022-08-01T04:53:29;18.00;99.90
27922;DHT22;15261;50.356;10.340;2022-08-01T04:55:57;18.30;99.90
27922;DHT22;15261;50.356;10.340;2022-08-01T04:58:23;18.40;99.90
27922;DHT22;15261;50.356;10.340;2022-08-01T05:00:49;18.70;99.90
27922;DHT22;15261;50.356;10.340;2022-08-01T05:03:15;19.10;99.90
27922;DHT22;15261;50.356;10.340;2022-08-01T05:05:40;19.30;99.90
27922;DHT22;15261;50.356;10.340;2022-08-01T05:08:06;19.40;99.90
27922;DHT22;15261;50.356;10.340;2022-08-01T05:10:32;19.40;99.90
27922;DHT22;15261;50.356;10.340;2022-08-01T05:12:57;19.40;99.90
27922;DHT22;15261;50.356;10.340;2022-08-01T05:15:23;19.60;99.90
27922;DHT22;15261;50.356;10.340;2022-08-01T05:17:48;19.90;99.90
27922;DHT22;15261;50.356;10.340;2022-08-01T05:20:14;19.90;99.90
27922;DHT22;15261;50.356;10.340;2022-08-01T05:23:10;20.00;99.90
27922;DHT22;15261;50.356;10.340;2022-08-01T05:25:37;20.20;99.90
27922;DHT22;15261;50.356;10.340;2022-08-01T05:28:04;20.20;99.90
27922;DHT22;15261;50.356;10.340;2022-08-01T05:30:29;20.10;99.90
27922;DHT22;15261;50.356;10.340;2022-08-01T05:32:55;20.00;99.90
27922;DHT22;15261;50.356;10.340;2022-08-01T05:35:20;19.90;99.90
27922;DHT22;15261;50.356;10.340;2022-08-01T05:37:46;19.70;99.90
27922;DHT22;15261;50.356;10.340;2022-08-01T05:40:11;19.70;99.90
27922;DHT22;15261;50.356;10.340;2022-08-01T05:42:37;19.80;99.90
27922;DHT22;15261;50.356;10.340;2022-08-01T05:45:03;19.90;99.90
27922;DHT22;15261;50.356;10.340;2022-08-01T05:47:29;20.00;99.90
27922;DHT22;15261;50.356;10.340;2022-08-01T05:49:54;19.90;99.90
27922;DHT22;15261;50.356;10.340;2022-08-01T05:52:22;20.10;99.90
27922;DHT22;15261;50.356;10.340;2022-08-01T05:54:47;20.20;99.90
27922;DHT22;15261;50.356;10.340;2022-08-01T05:57:13;20.30;99.90
27922;DHT22;15261;50.356;10.340;2022-08-01T05:59:38;20.50;99.90
27922;DHT22;15261;50.356;10.340;2022-08-01T06:02:04;20.70;99.90
27922;DHT22;15261;50.356;10.340;2022-08-01T06:04:29;20.90;99.90
27922;DHT22;15261;50.356;10.340;2022-08-01T06:06:55;21.10;99.90
27922;DHT22;15261;50.356;10.340;2022-08-01T06:09:21;21.30;99.90
27922;DHT22;15261;50.356;10.340;2022-08-01T06:11:46;21.30;99.90
27922;DHT22;15261;50.356;10.340;2022-08-01T06:14:12;21.30;99.90
27922;DHT22;15261;50.356;10.340;2022-08-01T06:16:37;21.30;99.90
27922;DHT22;15261;50.356;10.340;2022-08-01T06:19:03;21.40;99.90
27922;DHT22;15261;50.356;10.340;2022-08-01T06:21:29;21.60;99.90
27922;DHT22;15261;50.356;10.340;2022-08-01T06:23:54;22.00;99.90
27922;DHT22;15261;50.356;10.340;2022-08-01T06:26:20;22.40;99.90
27922;DHT22;15261;50.356;10.340;2022-08-01T06:28:46;22.50;99.90
27922;DHT22;15261;50.356;10.340;2022-08-01T06:31:12;22.40;99.90
27922;DHT22;15261;50.356;10.340;2022-08-01T06:33:39;22.50;99.90
27922;DHT22;15261;50.356;10.340;2022-08-01T06:39:26;22.50;99.90
27922;DHT22;15261;50.356;10.340;2022-08-01T06:41:52;22.30;99.90
27922;DHT22;15261;50.356;10.340;2022-08-01T06:44:18;22.40;99.90
27922;DHT22;15261;50.356;10.340;2022-08-01T06:46:43;22.60;99.90
27922;DHT22;15261;50.356;10.340;2022-08-01T06:49:09;22.80;99.90
27922;DHT22;15261;50.356;10.340;2022-08-01T06:51:45;22.70;99.90
27922;DHT22;15261;50.356;10.340;2022-08-01T06:54:11;22.70;99.90
27922;DHT22;15261;50.356;10.340;2022-08-01T06:56:36;22.70;99.90
27922;DHT22;15261;50.356;10.340;2022-08-01T06:59:03;22.80;99.90
27922;DHT22;15261;50.356;10.340;2022-08-01T07:01:29;22.90;99.90
27922;DHT22;15261;50.356;10.340;2022-08-01T07:03:59;22.90;99.90
27922;DHT22;15261;50.356;10.340;2022-08-01T07:06:25;23.10;99.90
27922;DHT22;15261;50.356;10.340;2022-08-01T07:08:51;23.30;99.90
27922;DHT22;15261;50.356;10.340;2022-08-01T07:11:20;23.40;99.90
27922;DHT22;15261;50.356;10.340;2022-08-01T07:13:46;23.40;99.90
27922;DHT22;15261;50.356;10.340;2022-08-01T07:16:13;23.20;99.90
27922;DHT22;15261;50.356;10.340;2022-08-01T07:18:39;23.00;99.90
27922;DHT22;15261;50.356;10.340;2022-08-01T07:21:05;22.80;99.90
27922;DHT22;15261;50.356;10.340;2022-08-01T07:23:32;22.70;99.90
27922;DHT22;15261;50.356;10.340;2022-08-01T07:25:57;22.70;99.90
27922;DHT22;15261;50.356;10.340;2022-08-01T07:28:24;22.50;99.90
27922;DHT22;15261;50.356;10.340;2022-08-01T07:31:07;22.50;99.90
27922;DHT22;15261;50.356;10.340;2022-08-01T07:33:33;22.60;99.90
27922;DHT22;15261;50.356;10.340;2022-08-01T07:35:58;22.60;99.90
27922;DHT22;15261;50.356;10.340;2022-08-01T07:38:24;22.80;99.90
27922;DHT22;15261;50.356;10.340;2022-08-01T07:40:49;22.80;99.90
27922;DHT22;15261;50.356;10.340;2022-08-01T07:43:15;23.00;99.90
27922;DHT22;15261;50.356;10.340;2022-08-01T07:45:41;23.10;99.90
27922;DHT22;15261;50.356;10.340;2022-08-01T07:48:07;23.20;99.90
27922;DHT22;15261;50.356;10.340;2022-08-01T07:50:32;23.40;99.90
27922;DHT22;15261;50.356;10.340;2022-08-01T07:53:11;23.40;99.90
27922;DHT22;15261;50.356;10.340;2022-08-01T07:55:37;23.40;99.90
27922;DHT22;15261;50.356;10.340;2022-08-01T07:58:03;23.50;99.90
27922;DHT22;15261;50.356;10.340;2022-08-01T08:00:31;23.20;99.90
27922;DHT22;15261;50.356;10.340;2022-08-01T08:02:57;23.20;99.90
27922;DHT22;15261;50.356;10.340;2022-08-01T08:05:25;23.20;99.90
27922;DHT22;15261;50.356;10.340;2022-08-01T08:07:51;23.30;99.90
27922;DHT22;15261;50.356;10.340;2022-08-01T08:10:16;23.60;99.90
27922;DHT22;15261;50.356;10.340;2022-08-01T08:12:42;23.80;99.90
27922;DHT22;15261;50.356;10.340;2022-08-01T08:15:08;23.80;99.90
27922;DHT22;15261;50.356;10.340;2022-08-01T08:17:34;23.90;99.90
27922;DHT22;15261;50.356;10.340;2022-08-01T08:20:01;23.80;99.90
27922;DHT22;15261;50.356;10.340;2022-08-01T08:22:27;23.60;99.90
27922;DHT22;15261;50.356;10.340;2022-08-01T08:24:53;23.80;99.90
27922;DHT22;15261;50.356;10.340;2022-08-01T08:27:18;23.80;99.90
27922;DHT22;15261;50.356;10.340;2022-08-01T08:29:44;24.20;99.90
27922;DHT22;15261;50.356;10.340;2022-08-01T08:32:10;24.90;99.90
27922;DHT22;15261;50.356;10.340;2022-08-01T08:34:35;25.40;99.90
27922;DHT22;15261;50.356;10.340;2022-08-01T08:37:01;25.70;99.90
27922;DHT22;15261;50.356;10.340;2022-08-01T08:39:27;25.30;99.90
27922;DHT22;15261;50.356;10.340;2022-08-01T08:41:56;25.20;99.90
27922;DHT22;15261;50.356;10.340;2022-08-01T08:44:23;25.30;99.90
27922;DHT22;15261;50.356;10.340;2022-08-01T08:46:50;25.10;99.90
27922;DHT22;15261;50.356;10.340;2022-08-01T08:49:20;25.10;99.90
27922;DHT22;15261;50.356;10.340;2022-08-01T08:51:48;25.10;99.90
27922;DHT22;15261;50.356;10.340;2022-08-01T08:54:14;25.10;99.90
27922;DHT22;15261;50.356;10.340;2022-08-01T08:56:42;25.00;99.90
27922;DHT22;15261;50.356;10.340;2022-08-01T08:59:11;25.00;99.90
27922;DHT22;15261;50.356;10.340;2022-08-01T09:01:38;24.90;99.90
27922;DHT22;15261;50.356;10.340;2022-08-01T09:04:04;24.70;99.90
27922;DHT22;15261;50.356;10.340;2022-08-01T09:06:32;24.50;99.90
27922;DHT22;15261;50.356;10.340;2022-08-01T09:08:58;24.30;99.90
27922;DHT22;15261;50.356;10.340;2022-08-01T09:11:24;24.30;99.90
27922;DHT22;15261;50.356;10.340;2022-08-01T09:16:35;24.20;99.90
27922;DHT22;15261;50.356;10.340;2022-08-01T09:19:25;24.20;99.90
27922;DHT22;15261;50.356;10.340;2022-08-01T09:21:59;24.10;99.90
27922;DHT22;15261;50.356;10.340;2022-08-01T09:24:29;24.00;99.90
27922;DHT22;15261;50.356;10.340;2022-08-01T09:26:57;24.40;99.90
27922;DHT22;15261;50.356;10.340;2022-08-01T09:32:59;25.60;99.90
27922;DHT22;15261;50.356;10.340;2022-08-01T09:35:40;26.40;97.80
27922;DHT22;15261;50.356;10.340;2022-08-01T09:40:59;27.10;96.30
27922;DHT22;15261;50.356;10.340;2022-08-01T09:43:27;27.50;94.20
27922;DHT22;15261;50.356;10.340;2022-08-01T09:46:02;27.50;92.90
27922;DHT22;15261;50.356;10.340;2022-08-01T09:48:29;27.60;92.60
27922;DHT22;15261;50.356;10.340;2022-08-01T09:50:58;27.60;92.00
27922;DHT22;15261;50.356;10.340;2022-08-01T09:53:24;27.50;91.30
27922;DHT22;15261;50.356;10.340;2022-08-01T09:55:50;27.30;90.70
27922;DHT22;15261;50.356;10.340;2022-08-01T09:58:26;27.00;91.40
27922;DHT22;15261;50.356;10.340;2022-08-01T10:00:59;26.90;92.20
27922;DHT22;15261;50.356;10.340;2022-08-01T10:03:26;27.30;92.80
27922;DHT22;15261;50.356;10.340;2022-08-01T10:05:52;27.70;92.60
27922;DHT22;15261;50.356;10.340;2022-08-01T10:08:19;28.00;91.50
27922;DHT22;15261;50.356;10.340;2022-08-01T10:11:24;28.20;91.20
27922;DHT22;15261;50.356;10.340;2022-08-01T10:13:50;28.20;89.90
27922;DHT22;15261;50.356;10.340;2022-08-01T10:16:16;28.20;88.60
27922;DHT22;15261;50.356;10.340;2022-08-01T10:18:43;28.00;90.60
27922;DHT22;15261;50.356;10.340;2022-08-01T10:21:10;27.90;91.40
27922;DHT22;15261;50.356;10.340;2022-08-01T10:23:37;27.80;91.70
27922;DHT22;15261;50.356;10.340;2022-08-01T10:26:05;27.70;91.50
27922;DHT22;15261;50.356;10.340;2022-08-01T10:28:34;27.90;91.20
27922;DHT22;15261;50.356;10.340;2022-08-01T10:31:00;28.10;90.60
27922;DHT22;15261;50.356;10.340;2022-08-01T10:33:32;28.10;90.00
27922;DHT22;15261;50.356;10.340;2022-08-01T10:35:58;27.90;88.90
27922;DHT22;15261;50.356;10.340;2022-08-01T10:38:24;27.40;91.30
27922;DHT22;15261;50.356;10.340;2022-08-01T10:40:50;26.90;92.80
27922;DHT22;15261;50.356;10.340;2022-08-01T10:43:18;26.30;93.40
27922;DHT22;15261;50.356;10.340;2022-08-01T10:45:44;25.80;95.00
27922;DHT22;15261;50.356;10.340;2022-08-01T10:48:16;25.10;96.80
27922;DHT22;15261;50.356;10.340;2022-08-01T10:50:49;24.90;97.80
27922;DHT22;15261;50.356;10.340;2022-08-01T10:53:18;24.50;99.30
27922;DHT22;15261;50.356;10.340;2022-08-01T10:56:08;24.40;99.90
27922;DHT22;15261;50.356;10.340;2022-08-01T10:58:38;24.60;99.90
27922;DHT22;15261;50.356;10.340;2022-08-01T11:03:55;25.30;99.10
27922;DHT22;15261;50.356;10.340;2022-08-01T11:11:28;26.30;96.40
27922;DHT22;15261;50.356;10.340;2022-08-01T11:16:39;26.70;95.60
27922;DHT22;15261;50.356;10.340;2022-08-01T11:19:07;27.00;95.10
27922;DHT22;15261;50.356;10.340;2022-08-01T11:27:30;27.10;94.10
27922;DHT22;15261;50.356;10.340;2022-08-01T11:35:10;27.00;91.40
27922;DHT22;15261;50.356;10.340;2022-08-01T11:37:37;27.20;91.80
27922;DHT22;15261;50.356;10.340;2022-08-01T11:40:23;27.50;90.60
27922;DHT22;15261;50.356;10.340;2022-08-01T11:42:50;27.60;89.80
27922;DHT22;15261;50.356;10.340;2022-08-01T11:45:16;27.70;89.50
27922;DHT22;15261;50.356;10.340;2022-08-01T11:47:47;28.10;89.60
27922;DHT22;15261;50.356;10.340;2022-08-01T11:55:27;28.80;85.70
27922;DHT22;15261;50.356;10.340;2022-08-01T11:58:07;28.90;85.10
27922;DHT22;15261;50.356;10.340;2022-08-01T12:00:33;29.20;84.90
27922;DHT22;15261;50.356;10.340;2022-08-01T12:03:07;29.30;83.00
27922;DHT22;15261;50.356;10.340;2022-08-01T12:05:34;29.30;81.70
27922;DHT22;15261;50.356;10.340;2022-08-01T12:08:03;29.60;81.00
27922;DHT22;15261;50.356;10.340;2022-08-01T12:10:33;29.50;78.00
27922;DHT22;15261;50.356;10.340;2022-08-01T12:13:04;29.00;79.70
27922;DHT22;15261;50.356;10.340;2022-08-01T12:15:39;29.00;81.30
27922;DHT22;15261;50.356;10.340;2022-08-01T12:18:06;29.10;78.70
27922;DHT22;15261;50.356;10.340;2022-08-01T12:20:36;29.20;78.90
27922;DHT22;15261;50.356;10.340;2022-08-01T12:23:07;29.20;78.10
27922;DHT22;15261;50.356;10.340;2022-08-01T12:25:34;29.40;77.40
27922;DHT22;15261;50.356;10.340;2022-08-01T12:28:02;29.10;75.50
27922;DHT22;15261;50.356;10.340;2022-08-01T12:30:29;28.70;76.20
27922;DHT22;15261;50.356;10.340;2022-08-01T12:32:56;28.00;79.10
27922;DHT22;15261;50.356;10.340;2022-08-01T12:35:24;27.20;79.20
27922;DHT22;15261;50.356;10.340;2022-08-01T12:40:20;27.40;83.30
27922;DHT22;15261;50.356;10.340;2022-08-01T12:42:49;27.60;83.20
27922;DHT22;15261;50.356;10.340;2022-08-01T12:45:27;27.80;81.60
27922;DHT22;15261;50.356;10.340;2022-08-01T12:47:54;28.00;80.50
27922;DHT22;15261;50.356;10.340;2022-08-01T12:50:22;28.00;79.30
27922;DHT22;15261;50.356;10.340;2022-08-01T12:52:49;28.10;78.20
27922;DHT22;15261;50.356;10.340;2022-08-01T12:55:24;28.30;78.80
27922;DHT22;15261;50.356;10.340;2022-08-01T12:58:04;28.40;78.70
27922;DHT22;15261;50.356;10.340;2022-08-01T13:00:30;28.30;78.10
27922;DHT22;15261;50.356;10.340;2022-08-01T13:03:08;28.40;79.50
27922;DHT22;15261;50.356;10.340;2022-08-01T13:05:53;28.20;79.10
27922;DHT22;15261;50.356;10.340;2022-08-01T13:08:40;27.90;80.50
27922;DHT22;15261;50.356;10.340;2022-08-01T13:11:11;28.00;80.10
27922;DHT22;15261;50.356;10.340;2022-08-01T13:13:51;28.10;78.80
27922;DHT22;15261;50.356;10.340;2022-08-01T13:16:19;28.20;80.10
27922;DHT22;15261;50.356;10.340;2022-08-01T13:18:49;28.20;79.10
27922;DHT22;15261;50.356;10.340;2022-08-01T13:21:17;28.40;78.70
27922;DHT22;15261;50.356;10.340;2022-08-01T13:24:22;28.50;77.40
27922;DHT22;15261;50.356;10.340;2022-08-01T13:29:20;28.30;76.90
27922;DHT22;15261;50.356;10.340;2022-08-01T13:31:46;27.90;77.40
27922;DHT22;15261;50.356;10.340;2022-08-01T13:34:12;27.70;78.80
27922;DHT22;15261;50.356;10.340;2022-08-01T13:36:38;27.50;81.00
27922;DHT22;15261;50.356;10.340;2022-08-01T13:39:05;27.40;81.50
27922;DHT22;15261;50.356;10.340;2022-08-01T13:41:49;27.30;82.50
27922;DHT22;15261;50.356;10.340;2022-08-01T13:44:16;27.00;83.20
27922;DHT22;15261;50.356;10.340;2022-08-01T13:46:42;27.00;81.40
27922;DHT22;15261;50.356;10.340;2022-08-01T13:49:09;27.10;80.80
27922;DHT22;15261;50.356;10.340;2022-08-01T13:51:36;26.90;81.90
27922;DHT22;15261;50.356;10.340;2022-08-01T13:54:02;27.20;79.80
27922;DHT22;15261;50.356;10.340;2022-08-01T13:56:28;27.20;78.30
27922;DHT22;15261;50.356;10.340;2022-08-01T13:58:56;27.20;81.00
27922;DHT22;15261;50.356;10.340;2022-08-01T14:01:22;27.40;78.60
27922;DHT22;15261;50.356;10.340;2022-08-01T14:03:49;27.40;79.20
27922;DHT22;15261;50.356;10.340;2022-08-01T14:06:16;27.50;77.40
27922;DHT22;15261;50.356;10.340;2022-08-01T14:08:43;27.60;76.40
27922;DHT22;15261;50.356;10.340;2022-08-01T14:11:08;27.80;77.40
27922;DHT22;15261;50.356;10.340;2022-08-01T14:13:34;27.80;74.60
27922;DHT22;15261;50.356;10.340;2022-08-01T14:16:02;27.60;76.00
27922;DHT22;15261;50.356;10.340;2022-08-01T14:18:28;27.70;75.40
27922;DHT22;15261;50.356;10.340;2022-08-01T14:20:53;27.70;73.60
27922;DHT22;15261;50.356;10.340;2022-08-01T14:23:19;27.40;75.00
27922;DHT22;15261;50.356;10.340;2022-08-01T14:25:44;27.60;75.50
27922;DHT22;15261;50.356;10.340;2022-08-01T14:28:10;27.80;74.90
27922;DHT22;15261;50.356;10.340;2022-08-01T14:30:36;27.80;73.90
27922;DHT22;15261;50.356;10.340;2022-08-01T14:33:02;27.90;72.50
27922;DHT22;15261;50.356;10.340;2022-08-01T14:35:28;28.00;72.60
27922;DHT22;15261;50.356;10.340;2022-08-01T14:37:53;28.00;71.80
27922;DHT22;15261;50.356;10.340;2022-08-01T14:40:19;28.10;71.00
27922;DHT22;15261;50.356;10.340;2022-08-01T14:42:44;28.10;71.40
27922;DHT22;15261;50.356;10.340;2022-08-01T14:45:12;28.20;72.50
27922;DHT22;15261;50.356;10.340;2022-08-01T14:47:39;28.20;72.20
27922;DHT22;15261;50.356;10.340;2022-08-01T14:50:10;28.00;71.20
27922;DHT22;15261;50.356;10.340;2022-08-01T14:52:37;28.10;70.00
27922;DHT22;15261;50.356;10.340;2022-08-01T14:55:04;28.20;70.70
27922;DHT22;15261;50.356;10.340;2022-08-01T14:57:30;27.70;70.70
27922;DHT22;15261;50.356;10.340;2022-08-01T14:59:56;27.80;71.40
27922;DHT22;15261;50.356;10.340;2022-08-01T15:02:22;27.60;71.60
27922;DHT22;15261;50.356;10.340;2022-08-01T15:04:48;27.50;72.50
27922;DHT22;15261;50.356;10.340;2022-08-01T15:07:15;27.30;71.50
27922;DHT22;15261;50.356;10.340;2022-08-01T15:09:41;27.40;72.30
27922;DHT22;15261;50.356;10.340;2022-08-01T15:12:08;27.40;72.00
27922;DHT22;15261;50.356;10.340;2022-08-01T15:14:33;27.40;72.40
27922;DHT22;15261;50.356;10.340;2022-08-01T15:19:40;27.10;76.30
27922;DHT22;15261;50.356;10.340;2022-08-01T15:22:06;27.10;77.10
27922;DHT22;15261;50.356;10.340;2022-08-01T15:24:31;27.00;77.20
27922;DHT22;15261;50.356;10.340;2022-08-01T15:26:57;27.10;77.90
27922;DHT22;15261;50.356;10.340;2022-08-01T15:29:22;26.90;76.80
27922;DHT22;15261;50.356;10.340;2022-08-01T15:31:48;26.90;77.70
27922;DHT22;15261;50.356;10.340;2022-08-01T15:34:14;26.70;77.60
27922;DHT22;15261;50.356;10.340;2022-08-01T15:36:40;26.60;78.00
27922;DHT22;15261;50.356;10.340;2022-08-01T15:39:08;26.50;78.10
27922;DHT22;15261;50.356;10.340;2022-08-01T15:41:34;26.40;78.30
27922;DHT22;15261;50.356;10.340;2022-08-01T15:43:59;26.40;78.30
27922;DHT22;15261;50.356;10.340;2022-08-01T15:46:25;26.30;79.10
27922;DHT22;15261;50.356;10.340;2022-08-01T15:48:50;26.30;78.60
27922;DHT22;15261;50.356;10.340;2022-08-01T15:51:16;26.40;78.10
27922;DHT22;15261;50.356;10.340;2022-08-01T15:53:42;26.60;77.70
27922;DHT22;15261;50.356;10.340;2022-08-01T15:56:07;26.80;77.00
27922;DHT22;15261;50.356;10.340;2022-08-01T15:58:33;27.00;75.40
27922;DHT22;15261;50.356;10.340;2022-08-01T16:00:59;27.20;74.70
27922;DHT22;15261;50.356;10.340;2022-08-01T16:03:25;27.30;74.90
27922;DHT22;15261;50.356;10.340;2022-08-01T16:05:52;27.40;74.70
27922;DHT22;15261;50.356;10.340;2022-08-01T16:08:17;27.20;73.30
27922;DHT22;15261;50.356;10.340;2022-08-01T16:10:43;27.20;73.80
27922;DHT22;15261;50.356;10.340;2022-08-01T16:13:09;27.20;73.90
27922;DHT22;15261;50.356;10.340;2022-08-01T16:15:36;27.10;73.90
27922;DHT22;15261;50.356;10.340;2022-08-01T16:18:02;27.10;74.50
27922;DHT22;15261;50.356;10.340;2022-08-01T16:20:28;26.90;74.00
27922;DHT22;15261;50.356;10.340;2022-08-01T16:22:53;26.90;74.50